Flight Track Log - Related Links

Times and Time Zones

All times are in EDT time to prevent confusion due to time zone crossing. See the SWA3201 flight status page for this flight to view local times or setup timezone preferences in your user account.

Time Position Orientation Groundspeed Altitude Reporting Facility
EDT Latitude Longitude Course Direction KTS MPH feet Rate Location/Type
Mon 07:42:40 AM 39.1667 -76.7167 170° South 177 204 3,300  Level Potomac TRACON
Mon 07:44:34 AM 39.0731 -76.6958 79° East 165 190 7,000 1,828 Climbing Washington Center
Mon 07:45:34 AM 39.0886 -76.5892 77° East 189 217 8,600 2,644 Climbing Washington Center
Mon 07:46:32 AM 39.1103 -76.4717 76° East 233 268 12,200 3,630 Climbing Washington Center
Mon 07:47:33 AM 39.1342 -76.3436 78° East 310 357 15,800 3,322 Climbing Washington Center
Mon 07:48:33 AM 39.1578 -76.1992 82° East 366 421 18,900 2,950 Climbing Washington Center
Mon 07:49:33 AM 39.1750 -76.0386 77° East 421 484 21,700 2,118 Climbing Washington Center
Mon 07:50:32 AM 39.2047 -75.8728 45° Northeast 450 518 23,100 2,250 Climbing Washington Center
Mon 07:51:33 AM 39.2925 -75.7578 45° Northeast 430 495 26,200 2,826 Climbing Washington Center
Mon 07:52:33 AM 39.3781 -75.6453 46° Northeast 430 495 28,800 1,388 Climbing Washington Center
Mon 07:53:34 AM 39.4614 -75.5350 45° Northeast 430 495 29,000 100 Climbing Washington Center
Mon 07:54:33 AM 39.5489 -75.4219 47° Northeast 430 495 29,000  Level Washington Center
Mon 07:56:54 AM 39.7425 -75.1500 47° Northeast 438 504 29,000  Level New York Center
Mon 07:57:54 AM 39.8258 -75.0336 46° Northeast 438 504 29,000  Level New York Center
Mon 07:58:52 AM 39.9114 -74.9169 48° Northeast 443 510 29,000  Level New York Center
Mon 07:59:52 AM 39.9992 -74.7894 46° Northeast 431 496 29,000  Level New York Center
Mon 08:00:52 AM 40.0736 -74.6878 42° Northeast 426 490 29,000  Level New York Center
Mon 08:01:53 AM 40.1711 -74.5739 39° Northeast 421 484 29,000  Level New York Center
Mon 08:02:54 AM 40.2575 -74.4808 42° Northeast 421 484 29,000  Level New York Center
Mon 08:03:52 AM 40.3461 -74.3764 40° Northeast 426 490 29,000  Level New York Center
Mon 08:04:53 AM 40.4367 -74.2750 42° Northeast 426 490 29,000  Level New York Center
Mon 08:05:53 AM 40.5253 -74.1703 41° Northeast 426 490 29,000 -446 Level New York Center
Mon 08:06:54 AM 40.6178 -74.0656 42° Northeast 421 484 28,100 -1,563 Descending New York Center
Mon 08:07:52 AM 40.7039 -73.9631 42° Northeast 421 484 25,900 -1,282 Descending New York Center
Mon 08:10:20 AM 40.9072 -73.7225 38° Northeast 389 448 23,700 -837 Descending Boston Center
Mon 08:11:20 AM 40.9958 -73.6308 20° North 377 434 23,000 -350 Descending Boston Center
Mon 08:12:20 AM 41.0775 -73.5911 20° North 355 409 23,000 -50 Level Boston Center
Mon 08:13:20 AM 41.1717 -73.5458 10° North 344 396 22,900 -600 Descending Boston Center
Mon 08:14:20 AM 41.2719 -73.5228 359° North 338 389 21,800 -1,050 Descending Boston Center
Mon 08:15:20 AM 41.3636 -73.5242 358° North 333 383 20,800 -1,550 Descending Boston Center
Mon 08:16:20 AM 41.4469 -73.5283 360° North 328 377 18,700 -2,000 Descending Boston Center
Mon 08:17:20 AM 41.5447 -73.5275 North 322 371 16,800 -1,450 Descending Boston Center
Mon 08:18:20 AM 41.6242 -73.5258 359° North 315 362 15,800 -1,050 Descending Boston Center
Mon 08:19:20 AM 41.7178 -73.5275 359° North 305 351 14,700 -1,000 Descending Boston Center
Mon 08:20:20 AM 41.7928 -73.5289 North 305 351 13,800 -950 Descending Boston Center
Mon 08:21:20 AM 41.8867 -73.5278 359° North 305 351 12,800 -950 Descending Boston Center
Mon 08:22:20 AM 41.9597 -73.5289 North 300 345 11,900 -1,069 Descending Boston Center
Mon 08:23:01 AM 42.0242 -73.5272 North 292 336 11,000 -450 Descending Boston Center
Mon 08:24:20 AM 42.1117 -73.5258 347° North 284 327 11,000  Level Boston Center
Mon 08:25:26 AM 42.2094 -73.5556 349° North 280 322 11,000 -661 Level Boston Center
Mon 08:26:27 AM 42.2822 -73.5739 348° North 277 319 9,600 -1,368 Descending Boston Center
Mon 08:27:20 AM 42.3425 -73.5917 351° North 274 315 8,400 -1,434 Descending Boston Center
Mon 08:28:20 AM 42.4153 -73.6072 354° North 269 310 6,900 -1,442 Descending Boston Center
Mon 08:29:29 AM 42.4986 -73.6200 348° North 246 283 5,300 -1,200 Descending Boston Center
Mon 08:30:20 AM 42.5506 -73.6350 352° North 246 283 4,500 -973 Descending Boston Center
Mon 08:31:20 AM 42.6169 -73.6475 347° North 241 277 3,500 -950 Descending Boston Center
Mon 08:32:20 AM 42.6772 -73.6658 335° Northwest 236 272 2,600 -672 Descending Boston Center
Mon 08:33:25 AM 42.7331 -73.7008 301° West 174 200 2,100 -714 Descending Boston Center
Mon 08:34:26 AM 42.7494 -73.7378 269° West 124 143 1,100 -843 Descending Boston Center
Mon 08:35:26 AM 42.7489 -73.7858 269° West 122 140 400 -700 Descending Boston Center

Login

Don't have an account? Register now (free) for customized features, flight alerts, and more!